sensor_id;sensor_type;location;lat;lon;timestamp;P1;durP1;ratioP1;P2;durP2;ratioP2
85461;SDS011;75865;42.672;23.360;2024-02-26T00:02:21;11.55;;;7.90;;
85461;SDS011;75865;42.672;23.360;2024-02-26T00:04:48;14.77;;;8.35;;
85461;SDS011;75865;42.672;23.360;2024-02-26T00:07:15;14.27;;;8.00;;
85461;SDS011;75865;42.672;23.360;2024-02-26T00:09:42;14.35;;;8.20;;
85461;SDS011;75865;42.672;23.360;2024-02-26T00:12:09;15.80;;;9.07;;
85461;SDS011;75865;42.672;23.360;2024-02-26T00:14:36;13.02;;;8.25;;
85461;SDS011;75865;42.672;23.360;2024-02-26T00:17:03;15.50;;;8.38;;
85461;SDS011;75865;42.672;23.360;2024-02-26T00:19:29;19.95;;;10.50;;
85461;SDS011;75865;42.672;23.360;2024-02-26T00:21:56;18.02;;;10.18;;
85461;SDS011;75865;42.672;23.360;2024-02-26T00:24:23;14.50;;;9.32;;
85461;SDS011;75865;42.672;23.360;2024-02-26T00:26:50;18.88;;;9.90;;
85461;SDS011;75865;42.672;23.360;2024-02-26T00:29:21;17.35;;;9.50;;
85461;SDS011;75865;42.672;23.360;2024-02-26T00:31:48;18.05;;;9.95;;
85461;SDS011;75865;42.672;23.360;2024-02-26T00:34:15;13.30;;;9.68;;
85461;SDS011;75865;42.672;23.360;2024-02-26T00:36:42;21.88;;;10.43;;
85461;SDS011;75865;42.672;23.360;2024-02-26T00:39:08;16.58;;;9.98;;
85461;SDS011;75865;42.672;23.360;2024-02-26T00:41:39;16.42;;;9.52;;
85461;SDS011;75865;42.672;23.360;2024-02-26T00:44:07;18.08;;;10.05;;
85461;SDS011;75865;42.672;23.360;2024-02-26T00:46:33;13.50;;;9.82;;
85461;SDS011;75865;42.672;23.360;2024-02-26T00:49:00;18.92;;;9.35;;
85461;SDS011;75865;42.672;23.360;2024-02-26T00:51:28;17.35;;;10.25;;
85461;SDS011;75865;42.672;23.360;2024-02-26T00:53:55;17.98;;;9.50;;
85461;SDS011;75865;42.672;23.360;2024-02-26T00:56:22;18.70;;;9.95;;
85461;SDS011;75865;42.672;23.360;2024-02-26T00:58:49;15.02;;;9.32;;
85461;SDS011;75865;42.672;23.360;2024-02-26T01:01:15;14.80;;;8.90;;
85461;SDS011;75865;42.672;23.360;2024-02-26T01:03:42;13.25;;;8.40;;
85461;SDS011;75865;42.672;23.360;2024-02-26T01:06:09;13.52;;;8.18;;
85461;SDS011;75865;42.672;23.360;2024-02-26T01:08:36;14.98;;;8.82;;
85461;SDS011;75865;42.672;23.360;2024-02-26T01:11:04;16.52;;;9.27;;
85461;SDS011;75865;42.672;23.360;2024-02-26T01:13:30;14.32;;;8.38;;
85461;SDS011;75865;42.672;23.360;2024-02-26T01:15:57;16.60;;;8.38;;
85461;SDS011;75865;42.672;23.360;2024-02-26T01:18:24;14.13;;;8.40;;
85461;SDS011;75865;42.672;23.360;2024-02-26T01:20:51;16.95;;;8.95;;
85461;SDS011;75865;42.672;23.360;2024-02-26T01:23:20;15.23;;;9.00;;
85461;SDS011;75865;42.672;23.360;2024-02-26T01:25:47;15.73;;;9.23;;
85461;SDS011;75865;42.672;23.360;2024-02-26T01:28:16;12.80;;;8.30;;
85461;SDS011;75865;42.672;23.360;2024-02-26T01:30:43;15.00;;;9.55;;
85461;SDS011;75865;42.672;23.360;2024-02-26T01:33:09;27.13;;;11.25;;
85461;SDS011;75865;42.672;23.360;2024-02-26T01:35:36;20.10;;;11.77;;
85461;SDS011;75865;42.672;23.360;2024-02-26T01:38:03;23.35;;;11.88;;
85461;SDS011;75865;42.672;23.360;2024-02-26T01:40:30;20.20;;;12.63;;
85461;SDS011;75865;42.672;23.360;2024-02-26T01:42:57;22.88;;;13.60;;
85461;SDS011;75865;42.672;23.360;2024-02-26T01:45:25;19.83;;;12.75;;
85461;SDS011;75865;42.672;23.360;2024-02-26T01:47:52;23.70;;;12.70;;
85461;SDS011;75865;42.672;23.360;2024-02-26T01:50:20;25.92;;;13.82;;
85461;SDS011;75865;42.672;23.360;2024-02-26T01:52:49;25.17;;;13.35;;
85461;SDS011;75865;42.672;23.360;2024-02-26T01:55:20;25.67;;;13.20;;
85461;SDS011;75865;42.672;23.360;2024-02-26T01:57:49;23.33;;;13.43;;
85461;SDS011;75865;42.672;23.360;2024-02-26T02:00:18;26.25;;;14.18;;
85461;SDS011;75865;42.672;23.360;2024-02-26T02:02:47;25.58;;;14.80;;
85461;SDS011;75865;42.672;23.360;2024-02-26T02:05:15;26.95;;;14.55;;
85461;SDS011;75865;42.672;23.360;2024-02-26T02:07:45;22.77;;;13.70;;
85461;SDS011;75865;42.672;23.360;2024-02-26T02:10:15;26.58;;;14.75;;
85461;SDS011;75865;42.672;23.360;2024-02-26T02:12:43;26.75;;;14.38;;
85461;SDS011;75865;42.672;23.360;2024-02-26T02:15:10;21.60;;;13.93;;
85461;SDS011;75865;42.672;23.360;2024-02-26T02:17:36;27.77;;;14.27;;
85461;SDS011;75865;42.672;23.360;2024-02-26T02:20:03;24.33;;;15.40;;
85461;SDS011;75865;42.672;23.360;2024-02-26T02:22:34;26.63;;;16.30;;
85461;SDS011;75865;42.672;23.360;2024-02-26T02:25:00;25.65;;;15.13;;
85461;SDS011;75865;42.672;23.360;2024-02-26T02:27:27;25.35;;;15.02;;
85461;SDS011;75865;42.672;23.360;2024-02-26T02:29:55;28.38;;;14.93;;
85461;SDS011;75865;42.672;23.360;2024-02-26T02:32:22;25.63;;;13.27;;
85461;SDS011;75865;42.672;23.360;2024-02-26T02:34:51;28.58;;;14.65;;
85461;SDS011;75865;42.672;23.360;2024-02-26T02:37:17;25.83;;;13.75;;
85461;SDS011;75865;42.672;23.360;2024-02-26T02:39:44;26.50;;;14.73;;
85461;SDS011;75865;42.672;23.360;2024-02-26T02:42:11;22.42;;;13.57;;
85461;SDS011;75865;42.672;23.360;2024-02-26T02:44:39;23.13;;;12.70;;
85461;SDS011;75865;42.672;23.360;2024-02-26T02:47:06;20.02;;;11.40;;
85461;SDS011;75865;42.672;23.360;2024-02-26T02:49:32;18.00;;;11.98;;
85461;SDS011;75865;42.672;23.360;2024-02-26T02:51:59;23.20;;;13.90;;
85461;SDS011;75865;42.672;23.360;2024-02-26T02:54:27;19.25;;;12.13;;
85461;SDS011;75865;42.672;23.360;2024-02-26T02:56:54;21.38;;;13.23;;
85461;SDS011;75865;42.672;23.360;2024-02-26T02:59:21;27.90;;;14.48;;
85461;SDS011;75865;42.672;23.360;2024-02-26T03:01:47;24.63;;;14.55;;
85461;SDS011;75865;42.672;23.360;2024-02-26T03:04:14;24.17;;;13.80;;
85461;SDS011;75865;42.672;23.360;2024-02-26T03:06:41;25.42;;;13.77;;
85461;SDS011;75865;42.672;23.360;2024-02-26T03:09:08;23.08;;;13.40;;
85461;SDS011;75865;42.672;23.360;2024-02-26T03:11:35;21.00;;;12.77;;
85461;SDS011;75865;42.672;23.360;2024-02-26T03:14:01;19.55;;;11.93;;
85461;SDS011;75865;42.672;23.360;2024-02-26T03:16:28;17.65;;;11.95;;
85461;SDS011;75865;42.672;23.360;2024-02-26T03:18:55;19.83;;;12.00;;
85461;SDS011;75865;42.672;23.360;2024-02-26T03:21:24;21.10;;;12.43;;
85461;SDS011;75865;42.672;23.360;2024-02-26T03:23:51;21.42;;;12.77;;
85461;SDS011;75865;42.672;23.360;2024-02-26T03:26:18;23.73;;;12.98;;
85461;SDS011;75865;42.672;23.360;2024-02-26T03:28:45;20.27;;;12.10;;
85461;SDS011;75865;42.672;23.360;2024-02-26T03:31:12;26.63;;;13.10;;
85461;SDS011;75865;42.672;23.360;2024-02-26T03:33:38;21.00;;;12.85;;
85461;SDS011;75865;42.672;23.360;2024-02-26T03:36:05;18.38;;;12.57;;
85461;SDS011;75865;42.672;23.360;2024-02-26T03:38:34;26.63;;;13.38;;
85461;SDS011;75865;42.672;23.360;2024-02-26T03:41:00;25.70;;;12.80;;
85461;SDS011;75865;42.672;23.360;2024-02-26T03:43:27;22.77;;;13.48;;
85461;SDS011;75865;42.672;23.360;2024-02-26T03:45:54;20.50;;;13.57;;
85461;SDS011;75865;42.672;23.360;2024-02-26T03:48:21;23.38;;;14.27;;
85461;SDS011;75865;42.672;23.360;2024-02-26T03:50:47;22.25;;;13.82;;
85461;SDS011;75865;42.672;23.360;2024-02-26T03:53:14;24.02;;;14.02;;
85461;SDS011;75865;42.672;23.360;2024-02-26T03:55:41;26.45;;;14.85;;
85461;SDS011;75865;42.672;23.360;2024-02-26T03:58:08;20.33;;;12.75;;
85461;SDS011;75865;42.672;23.360;2024-02-26T04:00:36;21.08;;;13.57;;
85461;SDS011;75865;42.672;23.360;2024-02-26T04:03:04;30.13;;;16.75;;
85461;SDS011;75865;42.672;23.360;2024-02-26T04:05:31;30.08;;;18.48;;
85461;SDS011;75865;42.672;23.360;2024-02-26T04:07:58;31.02;;;17.77;;
85461;SDS011;75865;42.672;23.360;2024-02-26T04:10:25;31.38;;;17.35;;
85461;SDS011;75865;42.672;23.360;2024-02-26T04:12:52;30.40;;;18.95;;
85461;SDS011;75865;42.672;23.360;2024-02-26T04:15:22;37.67;;;21.70;;
85461;SDS011;75865;42.672;23.360;2024-02-26T04:17:49;48.30;;;25.67;;
85461;SDS011;75865;42.672;23.360;2024-02-26T04:20:16;39.55;;;20.50;;
85461;SDS011;75865;42.672;23.360;2024-02-26T04:22:43;32.22;;;18.98;;
85461;SDS011;75865;42.672;23.360;2024-02-26T04:25:11;37.78;;;20.02;;
85461;SDS011;75865;42.672;23.360;2024-02-26T04:27:38;29.27;;;18.17;;
85461;SDS011;75865;42.672;23.360;2024-02-26T04:30:05;32.42;;;17.48;;
85461;SDS011;75865;42.672;23.360;2024-02-26T04:32:33;33.28;;;18.05;;
85461;SDS011;75865;42.672;23.360;2024-02-26T04:35:01;33.38;;;18.38;;
85461;SDS011;75865;42.672;23.360;2024-02-26T04:37:29;35.67;;;18.55;;
85461;SDS011;75865;42.672;23.360;2024-02-26T04:39:58;31.23;;;18.48;;
85461;SDS011;75865;42.672;23.360;2024-02-26T04:42:25;35.80;;;19.27;;
85461;SDS011;75865;42.672;23.360;2024-02-26T04:44:54;33.58;;;19.20;;
85461;SDS011;75865;42.672;23.360;2024-02-26T04:47:21;32.25;;;15.98;;
85461;SDS011;75865;42.672;23.360;2024-02-26T04:49:49;26.33;;;16.50;;
85461;SDS011;75865;42.672;23.360;2024-02-26T04:52:16;28.92;;;15.63;;
85461;SDS011;75865;42.672;23.360;2024-02-26T04:54:43;28.63;;;15.25;;
85461;SDS011;75865;42.672;23.360;2024-02-26T04:57:10;25.58;;;14.77;;
85461;SDS011;75865;42.672;23.360;2024-02-26T04:59:37;27.23;;;15.52;;
85461;SDS011;75865;42.672;23.360;2024-02-26T05:02:03;26.90;;;15.00;;
85461;SDS011;75865;42.672;23.360;2024-02-26T05:04:31;27.67;;;16.00;;
85461;SDS011;75865;42.672;23.360;2024-02-26T05:06:58;27.52;;;15.02;;
85461;SDS011;75865;42.672;23.360;2024-02-26T05:09:25;25.15;;;16.45;;
85461;SDS011;75865;42.672;23.360;2024-02-26T05:11:52;26.10;;;15.55;;
85461;SDS011;75865;42.672;23.360;2024-02-26T05:14:19;28.17;;;15.27;;
85461;SDS011;75865;42.672;23.360;2024-02-26T05:16:46;26.33;;;14.82;;
85461;SDS011;75865;42.672;23.360;2024-02-26T05:19:13;27.25;;;15.15;;
85461;SDS011;75865;42.672;23.360;2024-02-26T05:21:40;24.98;;;16.17;;
85461;SDS011;75865;42.672;23.360;2024-02-26T05:24:08;27.10;;;15.98;;
85461;SDS011;75865;42.672;23.360;2024-02-26T05:26:35;31.02;;;16.33;;
85461;SDS011;75865;42.672;23.360;2024-02-26T05:29:02;25.58;;;15.23;;
85461;SDS011;75865;42.672;23.360;2024-02-26T05:31:29;28.65;;;16.15;;
85461;SDS011;75865;42.672;23.360;2024-02-26T05:33:56;29.23;;;16.70;;
85461;SDS011;75865;42.672;23.360;2024-02-26T05:36:23;28.08;;;15.98;;
85461;SDS011;75865;42.672;23.360;2024-02-26T05:38:50;29.02;;;16.00;;
85461;SDS011;75865;42.672;23.360;2024-02-26T05:41:17;30.35;;;16.38;;
85461;SDS011;75865;42.672;23.360;2024-02-26T05:43:52;31.13;;;16.48;;
85461;SDS011;75865;42.672;23.360;2024-02-26T05:46:20;27.83;;;16.10;;
85461;SDS011;75865;42.672;23.360;2024-02-26T05:48:48;27.65;;;15.23;;
85461;SDS011;75865;42.672;23.360;2024-02-26T05:51:17;26.27;;;15.52;;
85461;SDS011;75865;42.672;23.360;2024-02-26T05:53:44;25.15;;;14.85;;
85461;SDS011;75865;42.672;23.360;2024-02-26T05:56:13;25.40;;;15.32;;
85461;SDS011;75865;42.672;23.360;2024-02-26T05:58:40;25.75;;;14.55;;
85461;SDS011;75865;42.672;23.360;2024-02-26T06:01:07;25.70;;;15.85;;
85461;SDS011;75865;42.672;23.360;2024-02-26T06:03:34;37.53;;;19.83;;
85461;SDS011;75865;42.672;23.360;2024-02-26T06:06:01;33.28;;;17.00;;
85461;SDS011;75865;42.672;23.360;2024-02-26T06:08:28;30.65;;;15.65;;
85461;SDS011;75865;42.672;23.360;2024-02-26T06:10:55;27.13;;;15.02;;
85461;SDS011;75865;42.672;23.360;2024-02-26T06:13:22;32.05;;;15.25;;
85461;SDS011;75865;42.672;23.360;2024-02-26T06:15:48;24.85;;;14.10;;
85461;SDS011;75865;42.672;23.360;2024-02-26T06:18:15;26.50;;;14.73;;
85461;SDS011;75865;42.672;23.360;2024-02-26T06:20:42;30.58;;;14.77;;
85461;SDS011;75865;42.672;23.360;2024-02-26T06:23:09;25.15;;;14.88;;
85461;SDS011;75865;42.672;23.360;2024-02-26T06:25:36;27.27;;;15.02;;
85461;SDS011;75865;42.672;23.360;2024-02-26T06:28:03;30.85;;;14.73;;
85461;SDS011;75865;42.672;23.360;2024-02-26T06:30:30;25.33;;;14.18;;
85461;SDS011;75865;42.672;23.360;2024-02-26T06:32:57;28.38;;;14.70;;
85461;SDS011;75865;42.672;23.360;2024-02-26T06:35:24;27.98;;;14.32;;
85461;SDS011;75865;42.672;23.360;2024-02-26T06:37:51;27.05;;;14.90;;
85461;SDS011;75865;42.672;23.360;2024-02-26T06:40:19;30.23;;;15.98;;
85461;SDS011;75865;42.672;23.360;2024-02-26T06:42:46;37.45;;;17.83;;
85461;SDS011;75865;42.672;23.360;2024-02-26T06:45:15;44.55;;;23.65;;
85461;SDS011;75865;42.672;23.360;2024-02-26T06:47:42;44.75;;;27.05;;
85461;SDS011;75865;42.672;23.360;2024-02-26T06:50:11;31.70;;;18.27;;
85461;SDS011;75865;42.672;23.360;2024-02-26T06:52:38;25.98;;;15.48;;
85461;SDS011;75865;42.672;23.360;2024-02-26T06:55:05;32.67;;;16.45;;
85461;SDS011;75865;42.672;23.360;2024-02-26T06:57:34;25.02;;;15.35;;
85461;SDS011;75865;42.672;23.360;2024-02-26T07:00:01;26.70;;;14.30;;
85461;SDS011;75865;42.672;23.360;2024-02-26T07:02:30;25.63;;;15.07;;
85461;SDS011;75865;42.672;23.360;2024-02-26T07:04:57;28.95;;;15.50;;
85461;SDS011;75865;42.672;23.360;2024-02-26T07:07:24;25.55;;;14.93;;
85461;SDS011;75865;42.672;23.360;2024-02-26T07:09:51;22.73;;;14.18;;
85461;SDS011;75865;42.672;23.360;2024-02-26T07:12:18;28.45;;;14.93;;
85461;SDS011;75865;42.672;23.360;2024-02-26T07:14:47;28.77;;;15.45;;
85461;SDS011;75865;42.672;23.360;2024-02-26T07:17:15;37.97;;;20.33;;
85461;SDS011;75865;42.672;23.360;2024-02-26T07:19:42;34.42;;;16.08;;
85461;SDS011;75865;42.672;23.360;2024-02-26T07:22:09;23.48;;;13.38;;
85461;SDS011;75865;42.672;23.360;2024-02-26T07:24:36;21.30;;;14.00;;
85461;SDS011;75865;42.672;23.360;2024-02-26T07:27:03;31.35;;;15.25;;
85461;SDS011;75865;42.672;23.360;2024-02-26T07:29:30;21.10;;;13.52;;
85461;SDS011;75865;42.672;23.360;2024-02-26T07:31:57;24.88;;;13.68;;
85461;SDS011;75865;42.672;23.360;2024-02-26T07:34:24;26.08;;;14.93;;
85461;SDS011;75865;42.672;23.360;2024-02-26T07:36:56;36.25;;;16.08;;
85461;SDS011;75865;42.672;23.360;2024-02-26T07:39:23;30.88;;;19.88;;
85461;SDS011;75865;42.672;23.360;2024-02-26T07:41:49;34.45;;;20.98;;
85461;SDS011;75865;42.672;23.360;2024-02-26T07:46:46;27.35;;;17.02;;
85461;SDS011;75865;42.672;23.360;2024-02-26T07:49:13;31.13;;;19.15;;
85461;SDS011;75865;42.672;23.360;2024-02-26T07:51:40;34.42;;;20.02;;
85461;SDS011;75865;42.672;23.360;2024-02-26T07:54:08;41.90;;;24.60;;
85461;SDS011;75865;42.672;23.360;2024-02-26T07:56:35;42.67;;;22.90;;
85461;SDS011;75865;42.672;23.360;2024-02-26T07:59:01;37.03;;;20.92;;
85461;SDS011;75865;42.672;23.360;2024-02-26T08:01:29;33.25;;;19.35;;
85461;SDS011;75865;42.672;23.360;2024-02-26T08:03:56;34.03;;;21.05;;
85461;SDS011;75865;42.672;23.360;2024-02-26T08:06:23;33.42;;;21.25;;
85461;SDS011;75865;42.672;23.360;2024-02-26T08:08:50;33.33;;;21.27;;
85461;SDS011;75865;42.672;23.360;2024-02-26T08:11:17;35.08;;;21.00;;
85461;SDS011;75865;42.672;23.360;2024-02-26T08:13:43;35.70;;;19.70;;
85461;SDS011;75865;42.672;23.360;2024-02-26T08:16:10;29.90;;;20.55;;
85461;SDS011;75865;42.672;23.360;2024-02-26T08:18:38;33.72;;;22.08;;
85461;SDS011;75865;42.672;23.360;2024-02-26T08:21:05;35.63;;;21.05;;
85461;SDS011;75865;42.672;23.360;2024-02-26T08:23:32;36.47;;;19.13;;
85461;SDS011;75865;42.672;23.360;2024-02-26T08:25:59;35.10;;;22.73;;
85461;SDS011;75865;42.672;23.360;2024-02-26T08:28:25;28.33;;;17.05;;
85461;SDS011;75865;42.672;23.360;2024-02-26T08:30:52;26.20;;;15.27;;
85461;SDS011;75865;42.672;23.360;2024-02-26T08:33:19;30.33;;;15.27;;
85461;SDS011;75865;42.672;23.360;2024-02-26T08:35:46;29.55;;;17.05;;
85461;SDS011;75865;42.672;23.360;2024-02-26T08:38:13;20.98;;;12.65;;
85461;SDS011;75865;42.672;23.360;2024-02-26T08:40:41;19.45;;;10.52;;
85461;SDS011;75865;42.672;23.360;2024-02-26T08:43:08;14.63;;;8.63;;
85461;SDS011;75865;42.672;23.360;2024-02-26T08:45:36;11.45;;;7.63;;
85461;SDS011;75865;42.672;23.360;2024-02-26T08:48:03;16.02;;;8.77;;
85461;SDS011;75865;42.672;23.360;2024-02-26T08:50:30;18.70;;;9.88;;
85461;SDS011;75865;42.672;23.360;2024-02-26T08:52:57;19.00;;;11.07;;
85461;SDS011;75865;42.672;23.360;2024-02-26T08:55:25;18.85;;;10.25;;
85461;SDS011;75865;42.672;23.360;2024-02-26T08:57:51;14.88;;;9.32;;
85461;SDS011;75865;42.672;23.360;2024-02-26T09:00:18;10.95;;;7.45;;
85461;SDS011;75865;42.672;23.360;2024-02-26T09:05:16;10.48;;;6.57;;
85461;SDS011;75865;42.672;23.360;2024-02-26T09:07:42;11.50;;;7.78;;
85461;SDS011;75865;42.672;23.360;2024-02-26T09:10:10;11.98;;;7.10;;
85461;SDS011;75865;42.672;23.360;2024-02-26T09:12:37;10.88;;;5.32;;
85461;SDS011;75865;42.672;23.360;2024-02-26T09:15:06;10.10;;;5.82;;
85461;SDS011;75865;42.672;23.360;2024-02-26T09:17:33;9.98;;;5.95;;
85461;SDS011;75865;42.672;23.360;2024-02-26T09:20:01;12.27;;;6.20;;
85461;SDS011;75865;42.672;23.360;2024-02-26T09:22:28;10.10;;;4.85;;
85461;SDS011;75865;42.672;23.360;2024-02-26T09:24:55;12.95;;;5.80;;
85461;SDS011;75865;42.672;23.360;2024-02-26T09:27:22;5.95;;;4.13;;
85461;SDS011;75865;42.672;23.360;2024-02-26T09:29:50;6.45;;;4.53;;
85461;SDS011;75865;42.672;23.360;2024-02-26T09:32:17;9.85;;;4.47;;
85461;SDS011;75865;42.672;23.360;2024-02-26T09:34:44;6.63;;;4.20;;
85461;SDS011;75865;42.672;23.360;2024-02-26T09:37:11;17.13;;;4.82;;
85461;SDS011;75865;42.672;23.360;2024-02-26T09:39:47;7.85;;;4.78;;
85461;SDS011;75865;42.672;23.360;2024-02-26T09:42:14;6.82;;;3.97;;
85461;SDS011;75865;42.672;23.360;2024-02-26T09:44:45;7.22;;;4.63;;
85461;SDS011;75865;42.672;23.360;2024-02-26T09:47:13;6.57;;;3.85;;
85461;SDS011;75865;42.672;23.360;2024-02-26T09:49:43;6.82;;;4.45;;
85461;SDS011;75865;42.672;23.360;2024-02-26T09:52:10;6.57;;;4.18;;
85461;SDS011;75865;42.672;23.360;2024-02-26T09:54:38;6.57;;;4.20;;
85461;SDS011;75865;42.672;23.360;2024-02-26T09:57:05;6.18;;;4.25;;
85461;SDS011;75865;42.672;23.360;2024-02-26T09:59:41;9.60;;;4.90;;
85461;SDS011;75865;42.672;23.360;2024-02-26T10:02:11;6.20;;;4.10;;
85461;SDS011;75865;42.672;23.360;2024-02-26T10:04:40;9.50;;;4.45;;
85461;SDS011;75865;42.672;23.360;2024-02-26T10:07:11;6.75;;;4.07;;
85461;SDS011;75865;42.672;23.360;2024-02-26T10:09:39;11.73;;;5.50;;
85461;SDS011;75865;42.672;23.360;2024-02-26T10:12:08;7.78;;;3.88;;
85461;SDS011;75865;42.672;23.360;2024-02-26T10:14:37;6.03;;;3.97;;
85461;SDS011;75865;42.672;23.360;2024-02-26T10:17:06;8.60;;;4.38;;
85461;SDS011;75865;42.672;23.360;2024-02-26T10:19:34;6.03;;;3.17;;
85461;SDS011;75865;42.672;23.360;2024-02-26T10:24:31;7.82;;;4.35;;
85461;SDS011;75865;42.672;23.360;2024-02-26T10:26:58;4.97;;;3.58;;
85461;SDS011;75865;42.672;23.360;2024-02-26T10:29:25;7.68;;;4.20;;
85461;SDS011;75865;42.672;23.360;2024-02-26T10:31:52;6.55;;;4.35;;
85461;SDS011;75865;42.672;23.360;2024-02-26T10:34:19;6.43;;;3.63;;
85461;SDS011;75865;42.672;23.360;2024-02-26T10:36:47;5.35;;;4.03;;
85461;SDS011;75865;42.672;23.360;2024-02-26T10:39:19;6.38;;;3.42;;
85461;SDS011;75865;42.672;23.360;2024-02-26T10:41:47;6.38;;;3.42;;
85461;SDS011;75865;42.672;23.360;2024-02-26T10:44:14;4.65;;;2.97;;
85461;SDS011;75865;42.672;23.360;2024-02-26T10:46:46;4.00;;;3.33;;
85461;SDS011;75865;42.672;23.360;2024-02-26T10:49:16;4.82;;;3.15;;
85461;SDS011;75865;42.672;23.360;2024-02-26T10:51:49;5.70;;;3.40;;
85461;SDS011;75865;42.672;23.360;2024-02-26T10:54:21;10.32;;;4.38;;
85461;SDS011;75865;42.672;23.360;2024-02-26T10:56:50;4.70;;;3.28;;
85461;SDS011;75865;42.672;23.360;2024-02-26T10:59:18;8.90;;;4.13;;
85461;SDS011;75865;42.672;23.360;2024-02-26T11:01:50;6.47;;;4.07;;
85461;SDS011;75865;42.672;23.360;2024-02-26T11:04:17;6.07;;;2.90;;
85461;SDS011;75865;42.672;23.360;2024-02-26T11:06:45;5.13;;;2.90;;
85461;SDS011;75865;42.672;23.360;2024-02-26T11:09:14;5.55;;;3.00;;
85461;SDS011;75865;42.672;23.360;2024-02-26T11:11:42;4.82;;;3.58;;
85461;SDS011;75865;42.672;23.360;2024-02-26T11:14:09;6.07;;;3.83;;
85461;SDS011;75865;42.672;23.360;2024-02-26T11:16:37;6.90;;;3.72;;
85461;SDS011;75865;42.672;23.360;2024-02-26T11:19:06;5.63;;;3.80;;
85461;SDS011;75865;42.672;23.360;2024-02-26T11:24:07;4.75;;;3.88;;
85461;SDS011;75865;42.672;23.360;2024-02-26T11:26:39;4.60;;;3.63;;
85461;SDS011;75865;42.672;23.360;2024-02-26T11:29:17;4.65;;;2.92;;
85461;SDS011;75865;42.672;23.360;2024-02-26T11:31:48;7.05;;;3.53;;
85461;SDS011;75865;42.672;23.360;2024-02-26T11:34:15;7.63;;;4.47;;
85461;SDS011;75865;42.672;23.360;2024-02-26T11:36:44;6.75;;;3.63;;
85461;SDS011;75865;42.672;23.360;2024-02-26T11:39:12;5.10;;;3.05;;
85461;SDS011;75865;42.672;23.360;2024-02-26T11:41:43;5.20;;;3.35;;
85461;SDS011;75865;42.672;23.360;2024-02-26T11:44:10;4.07;;;2.97;;
85461;SDS011;75865;42.672;23.360;2024-02-26T11:46:40;7.85;;;3.65;;
85461;SDS011;75865;42.672;23.360;2024-02-26T11:51:55;3.58;;;2.42;;
85461;SDS011;75865;42.672;23.360;2024-02-26T11:59:48;6.40;;;3.15;;
85461;SDS011;75865;42.672;23.360;2024-02-26T12:05:14;4.80;;;2.97;;
85461;SDS011;75865;42.672;23.360;2024-02-26T12:08:04;4.30;;;3.03;;
85461;SDS011;75865;42.672;23.360;2024-02-26T12:10:37;4.35;;;2.85;;
85461;SDS011;75865;42.672;23.360;2024-02-26T12:13:07;6.57;;;3.15;;
85461;SDS011;75865;42.672;23.360;2024-02-26T12:18:18;6.07;;;3.03;;
85461;SDS011;75865;42.672;23.360;2024-02-26T12:20:45;5.43;;;2.58;;
85461;SDS011;75865;42.672;23.360;2024-02-26T12:23:16;4.97;;;2.78;;
85461;SDS011;75865;42.672;23.360;2024-02-26T12:25:43;5.53;;;3.30;;
85461;SDS011;75865;42.672;23.360;2024-02-26T12:28:10;6.28;;;2.90;;
85461;SDS011;75865;42.672;23.360;2024-02-26T12:30:37;7.95;;;3.30;;
85461;SDS011;75865;42.672;23.360;2024-02-26T12:33:04;5.80;;;3.38;;
85461;SDS011;75865;42.672;23.360;2024-02-26T12:35:31;5.63;;;2.67;;
85461;SDS011;75865;42.672;23.360;2024-02-26T12:37:58;4.88;;;2.72;;
85461;SDS011;75865;42.672;23.360;2024-02-26T12:40:26;5.03;;;3.20;;
85461;SDS011;75865;42.672;23.360;2024-02-26T12:42:54;7.28;;;3.05;;
85461;SDS011;75865;42.672;23.360;2024-02-26T12:45:21;5.00;;;2.97;;
85461;SDS011;75865;42.672;23.360;2024-02-26T12:47:48;5.97;;;3.25;;
85461;SDS011;75865;42.672;23.360;2024-02-26T12:50:16;4.97;;;3.13;;
85461;SDS011;75865;42.672;23.360;2024-02-26T12:52:44;3.47;;;2.50;;
85461;SDS011;75865;42.672;23.360;2024-02-26T12:55:16;3.78;;;2.60;;
85461;SDS011;75865;42.672;23.360;2024-02-26T12:57:44;4.60;;;2.78;;
85461;SDS011;75865;42.672;23.360;2024-02-26T13:00:12;9.45;;;3.58;;
85461;SDS011;75865;42.672;23.360;2024-02-26T13:02:41;9.07;;;2.70;;
85461;SDS011;75865;42.672;23.360;2024-02-26T13:05:12;9.95;;;3.20;;
85461;SDS011;75865;42.672;23.360;2024-02-26T13:07:44;6.20;;;3.53;;
85461;SDS011;75865;42.672;23.360;2024-02-26T13:10:13;5.53;;;2.97;;
85461;SDS011;75865;42.672;23.360;2024-02-26T13:12:44;5.45;;;2.60;;
85461;SDS011;75865;42.672;23.360;2024-02-26T13:15:15;4.35;;;2.85;;
85461;SDS011;75865;42.672;23.360;2024-02-26T13:17:44;5.13;;;2.92;;
85461;SDS011;75865;42.672;23.360;2024-02-26T13:20:27;5.38;;;2.70;;
85461;SDS011;75865;42.672;23.360;2024-02-26T13:23:04;3.80;;;2.40;;
85461;SDS011;75865;42.672;23.360;2024-02-26T13:25:37;3.97;;;2.58;;
85461;SDS011;75865;42.672;23.360;2024-02-26T13:28:14;3.30;;;2.72;;
85461;SDS011;75865;42.672;23.360;2024-02-26T13:30:52;6.78;;;3.00;;
85461;SDS011;75865;42.672;23.360;2024-02-26T13:33:27;6.55;;;3.20;;
85461;SDS011;75865;42.672;23.360;2024-02-26T13:35:56;5.30;;;2.90;;
85461;SDS011;75865;42.672;23.360;2024-02-26T13:38:24;6.30;;;2.92;;
85461;SDS011;75865;42.672;23.360;2024-02-26T13:40:51;9.02;;;2.72;;
85461;SDS011;75865;42.672;23.360;2024-02-26T13:43:18;4.82;;;2.47;;
85461;SDS011;75865;42.672;23.360;2024-02-26T13:45:46;4.82;;;2.30;;
85461;SDS011;75865;42.672;23.360;2024-02-26T13:48:13;4.20;;;2.40;;
85461;SDS011;75865;42.672;23.360;2024-02-26T13:50:41;4.00;;;2.47;;
85461;SDS011;75865;42.672;23.360;2024-02-26T13:53:12;6.25;;;2.88;;
85461;SDS011;75865;42.672;23.360;2024-02-26T13:55:41;6.30;;;2.92;;
85461;SDS011;75865;42.672;23.360;2024-02-26T13:58:11;6.93;;;2.97;;
85461;SDS011;75865;42.672;23.360;2024-02-26T14:00:42;4.85;;;2.95;;
85461;SDS011;75865;42.672;23.360;2024-02-26T14:03:10;7.95;;;2.70;;
85461;SDS011;75865;42.672;23.360;2024-02-26T14:05:37;3.67;;;3.22;;
85461;SDS011;75865;42.672;23.360;2024-02-26T14:08:04;5.57;;;2.88;;
85461;SDS011;75865;42.672;23.360;2024-02-26T14:10:32;4.78;;;2.90;;
85461;SDS011;75865;42.672;23.360;2024-02-26T14:12:58;6.30;;;2.72;;
85461;SDS011;75865;42.672;23.360;2024-02-26T14:15:27;3.15;;;2.33;;
85461;SDS011;75865;42.672;23.360;2024-02-26T14:17:55;2.85;;;2.20;;
85461;SDS011;75865;42.672;23.360;2024-02-26T14:20:25;3.80;;;2.95;;
85461;SDS011;75865;42.672;23.360;2024-02-26T14:22:53;3.20;;;2.42;;
85461;SDS011;75865;42.672;23.360;2024-02-26T14:25:20;6.90;;;2.80;;
85461;SDS011;75865;42.672;23.360;2024-02-26T14:27:48;5.13;;;2.90;;
85461;SDS011;75865;42.672;23.360;2024-02-26T14:30:15;3.80;;;2.38;;
85461;SDS011;75865;42.672;23.360;2024-02-26T14:32:42;8.63;;;3.08;;
85461;SDS011;75865;42.672;23.360;2024-02-26T14:35:10;5.57;;;2.78;;
85461;SDS011;75865;42.672;23.360;2024-02-26T14:37:43;4.90;;;2.42;;
85461;SDS011;75865;42.672;23.360;2024-02-26T14:40:14;10.52;;;2.60;;
85461;SDS011;75865;42.672;23.360;2024-02-26T14:42:41;4.68;;;2.75;;
85461;SDS011;75865;42.672;23.360;2024-02-26T14:45:08;5.25;;;2.60;;
85461;SDS011;75865;42.672;23.360;2024-02-26T14:47:36;4.32;;;2.88;;